Topsham Four Corners, Vermont
Current Conditions -  °F | °C
As of 11:51 AM on Friday 24 Oct 2014 (Local Time) from KMPV Reporting Station
Overcast Overcast  
Wind Chill: 36°   Ceiling: 700
Heat Index: 41°   Visibility: 10mi
Dew Point: 40°   Wind: 8mph
Humidity: 96%   Direction: 340°NNW
Pressure: 29.84"   Gusts: NA
Location:  44.0639°N, 72.2226°W
Report Text: KMPV 241551Z AUTO 34007KT 10SM BKN007 OVC016 05/04 A2984 RMK AO2 CIG 003V009 SLP112 T00500044 $
Loading
Personal Weather Stations






























Interactive Weather Map
Tropical Storm Tracking
New forecast layout! Learn more

10-Day Weather Forecast

Advertisements
Track Severe Weather on mobile